sensor_id;sensor_type;location;lat;lon;timestamp;P1;P2;P0
62981;PMS5003;49075;53.988;27.678;2023-02-22T00:02:06;34.4;33.6;27
62981;PMS5003;49075;53.988;27.678;2023-02-22T00:06:28;32.2;32.2;25.2
62981;PMS5003;49075;53.988;27.678;2023-02-22T00:11:43;32.5;32;25
62981;PMS5003;49075;53.988;27.678;2023-02-22T00:16:19;30.2;30.2;25
62981;PMS5003;49075;53.988;27.678;2023-02-22T00:21:52;39.4;37;28.4
62981;PMS5003;49075;53.988;27.678;2023-02-22T00:27:08;29.6;29;22.6
62981;PMS5003;49075;53.988;27.678;2023-02-22T00:31:16;31.4;30.6;25.4
62981;PMS5003;49075;53.988;27.678;2023-02-22T00:36:34;36.4;35.8;28.8
62981;PMS5003;49075;53.988;27.678;2023-02-22T00:42:00;33.6;32.8;26.2
62981;PMS5003;49075;53.988;27.678;2023-02-22T00:46:52;41.8;40.4;30.6
62981;PMS5003;49075;53.988;27.678;2023-02-22T00:52:08;31.2;30.2;24.6
62981;PMS5003;49075;53.988;27.678;2023-02-22T00:56:18;33.6;33.2;26.8
62981;PMS5003;49075;53.988;27.678;2023-02-22T01:01:18;44.2;42.4;31
62981;PMS5003;49075;53.988;27.678;2023-02-22T01:06:18;37.8;36.8;28.2
62981;PMS5003;49075;53.988;27.678;2023-02-22T01:11:54;35.3;34;26.8
62981;PMS5003;49075;53.988;27.678;2023-02-22T01:17:10;33.8;33.2;26.6
62981;PMS5003;49075;53.988;27.678;2023-02-22T01:21:44;38;37.4;28
62981;PMS5003;49075;53.988;27.678;2023-02-22T01:26:48;39.2;37;30
62981;PMS5003;49075;53.988;27.678;2023-02-22T01:31:30;32.8;31.6;25.6
62981;PMS5003;49075;53.988;27.678;2023-02-22T01:36:46;36;36;28
62981;PMS5003;49075;53.988;27.678;2023-02-22T01:42:10;27.2;27.2;23
62981;PMS5003;49075;53.988;27.678;2023-02-22T01:46:30;37;36;28.2
62981;PMS5003;49075;53.988;27.678;2023-02-22T01:51:43;30.2;29.8;24.6
62981;PMS5003;49075;53.988;27.678;2023-02-22T01:56:18;33.8;33.2;26.2
62981;PMS5003;49075;53.988;27.678;2023-02-22T02:01:52;33.6;33;25
62981;PMS5003;49075;53.988;27.678;2023-02-22T02:07:10;37;36.6;28.2
62981;PMS5003;49075;53.988;27.678;2023-02-22T02:11:21;33.8;32.8;26.3
62981;PMS5003;49075;53.988;27.678;2023-02-22T02:17:08;38.6;38.4;29.6
62981;PMS5003;49075;53.988;27.678;2023-02-22T02:21:51;34.4;32.4;26.4
62981;PMS5003;49075;53.988;27.678;2023-02-22T02:26:58;32.8;32.8;27.4
62981;PMS5003;49075;53.988;27.678;2023-02-22T02:32:14;39;37.4;29
62981;PMS5003;49075;53.988;27.678;2023-02-22T02:36:46;36;35;27.4
62981;PMS5003;49075;53.988;27.678;2023-02-22T02:41:19;37.8;37.2;27.4
62981;PMS5003;49075;53.988;27.678;2023-02-22T02:46:29;34.8;34;28.6
62981;PMS5003;49075;53.988;27.678;2023-02-22T02:51:52;33.2;32.6;25.8
62981;PMS5003;49075;53.988;27.678;2023-02-22T02:57:06;34;33.4;27.4
62981;PMS5003;49075;53.988;27.678;2023-02-22T03:01:48;32.4;32.2;26.8
62981;PMS5003;49075;53.988;27.678;2023-02-22T03:07:02;36.2;35.2;27.2
62981;PMS5003;49075;53.988;27.678;2023-02-22T03:11:34;42.6;40.6;31.4
62981;PMS5003;49075;53.988;27.678;2023-02-22T03:16:54;37;36;28
62981;PMS5003;49075;53.988;27.678;2023-02-22T03:22:11;35.4;34.6;27.6
62981;PMS5003;49075;53.988;27.678;2023-02-22T03:27:11;35.8;34.6;27
62981;PMS5003;49075;53.988;27.678;2023-02-22T03:31:46;38;37;27.6
62981;PMS5003;49075;53.988;27.678;2023-02-22T03:36:46;39.2;37.2;29.4
62981;PMS5003;49075;53.988;27.678;2023-02-22T03:41:52;31.8;31.8;26.6
62981;PMS5003;49075;53.988;27.678;2023-02-22T03:46:53;38;37;28.6
62981;PMS5003;49075;53.988;27.678;2023-02-22T03:51:18;39.8;38;29.8
62981;PMS5003;49075;53.988;27.678;2023-02-22T03:57:11;31.8;31.4;26.2
62981;PMS5003;49075;53.988;27.678;2023-02-22T04:01:30;42;40.6;31
62981;PMS5003;49075;53.988;27.678;2023-02-22T04:06:34;33;32;25
62981;PMS5003;49075;53.988;27.678;2023-02-22T04:11:18;40.6;40.4;30.4
62981;PMS5003;49075;53.988;27.678;2023-02-22T04:16:44;37.3;35.5;29
62981;PMS5003;49075;53.988;27.678;2023-02-22T04:22:08;32.4;32.4;26.4
62981;PMS5003;49075;53.988;27.678;2023-02-22T04:26:18;38.2;38;30.6
62981;PMS5003;49075;53.988;27.678;2023-02-22T04:31:58;34.2;34.2;27.4
62981;PMS5003;49075;53.988;27.678;2023-02-22T04:36:40;38.2;36.8;29.6
62981;PMS5003;49075;53.988;27.678;2023-02-22T04:41:58;32.4;32;26.4
62981;PMS5003;49075;53.988;27.678;2023-02-22T04:47:08;40.6;38;30.6
62981;PMS5003;49075;53.988;27.678;2023-02-22T04:51:42;37;36.8;29.6
62981;PMS5003;49075;53.988;27.678;2023-02-22T04:56:18;29.8;29.8;24.2
62981;PMS5003;49075;53.988;27.678;2023-02-22T05:01:48;36.8;36.4;28.8
62981;PMS5003;49075;53.988;27.678;2023-02-22T05:06:46;35.6;35.4;28.2
62981;PMS5003;49075;53.988;27.678;2023-02-22T05:12:10;30.8;30.2;24.6
62981;PMS5003;49075;53.988;27.678;2023-02-22T05:16:36;44.5;42.8;31.8
62981;PMS5003;49075;53.988;27.678;2023-02-22T05:21:46;41.8;39.8;29.2
62981;PMS5003;49075;53.988;27.678;2023-02-22T05:26:50;38.2;37.2;29.8
62981;PMS5003;49075;53.988;27.678;2023-02-22T05:31:18;43.6;41.4;31
62981;PMS5003;49075;53.988;27.678;2023-02-22T05:37:06;40.8;39;30.4
62981;PMS5003;49075;53.988;27.678;2023-02-22T05:41:38;57.6;51.4;36.2
62981;PMS5003;49075;53.988;27.678;2023-02-22T05:47:00;57.8;51.2;35
62981;PMS5003;49075;53.988;27.678;2023-02-22T05:51:50;56.6;48.8;34
62981;PMS5003;49075;53.988;27.678;2023-02-22T05:56:28;38.8;36.6;29
62981;PMS5003;49075;53.988;27.678;2023-02-22T06:02:04;47.8;44.4;32.2
62981;PMS5003;49075;53.988;27.678;2023-02-22T06:06:19;50.4;45.8;33.2
62981;PMS5003;49075;53.988;27.678;2023-02-22T06:11:18;53.6;47.8;33.8
62981;PMS5003;49075;53.988;27.678;2023-02-22T06:16:42;55.8;50.5;35.8
62981;PMS5003;49075;53.988;27.678;2023-02-22T06:21:47;43.6;41.4;31.4
62981;PMS5003;49075;53.988;27.678;2023-02-22T06:27:04;35.4;35.2;27
62981;PMS5003;49075;53.988;27.678;2023-02-22T06:31:18;44.2;41.6;30.8
62981;PMS5003;49075;53.988;27.678;2023-02-22T06:36:42;46;43.2;32.2
62981;PMS5003;49075;53.988;27.678;2023-02-22T06:41:50;41.6;40.4;30.6
62981;PMS5003;49075;53.988;27.678;2023-02-22T06:46:58;39.6;38.6;29.2
62981;PMS5003;49075;53.988;27.678;2023-02-22T06:52:04;36;35.6;27.6
62981;PMS5003;49075;53.988;27.678;2023-02-22T06:56:18;43.8;41.2;31.4
62981;PMS5003;49075;53.988;27.678;2023-02-22T07:01:44;40;38.2;29.2
62981;PMS5003;49075;53.988;27.678;2023-02-22T07:06:50;42;39.6;30.2
62981;PMS5003;49075;53.988;27.678;2023-02-22T07:11:32;42;40.4;31.2
62981;PMS5003;49075;53.988;27.678;2023-02-22T07:17:06;41;39.8;29.8
62981;PMS5003;49075;53.988;27.678;2023-02-22T07:21:29;34.6;32.8;26.2
62981;PMS5003;49075;53.988;27.678;2023-02-22T07:26:37;35;33.6;26.6
62981;PMS5003;49075;53.988;27.678;2023-02-22T07:31:46;36.8;36;27.2
62981;PMS5003;49075;53.988;27.678;2023-02-22T07:36:54;36.2;35.2;27.4
62981;PMS5003;49075;53.988;27.678;2023-02-22T07:42:08;41;39.6;30.4
62981;PMS5003;49075;53.988;27.678;2023-02-22T07:46:30;38;37.2;29.8
62981;PMS5003;49075;53.988;27.678;2023-02-22T07:51:58;34.2;33.2;27.8
62981;PMS5003;49075;53.988;27.678;2023-02-22T07:57:08;32.5;32.3;24.8
62981;PMS5003;49075;53.988;27.678;2023-02-22T08:01:32;36;35.4;28.6
62981;PMS5003;49075;53.988;27.678;2023-02-22T08:06:58;41.4;39.8;30
62981;PMS5003;49075;53.988;27.678;2023-02-22T08:11:30;35.2;34.2;27
62981;PMS5003;49075;53.988;27.678;2023-02-22T08:16:58;35;34.4;27.8
62981;PMS5003;49075;53.988;27.678;2023-02-22T08:22:08;33;32.4;26
62981;PMS5003;49075;53.988;27.678;2023-02-22T08:26:43;36.4;35.4;26.6
62981;PMS5003;49075;53.988;27.678;2023-02-22T08:32:04;37.8;36.2;29.2
62981;PMS5003;49075;53.988;27.678;2023-02-22T08:36:18;31.8;31;26.2
62981;PMS5003;49075;53.988;27.678;2023-02-22T08:41:54;33.8;32.8;25
62981;PMS5003;49075;53.988;27.678;2023-02-22T08:47:06;32.4;32.4;25.8
62981;PMS5003;49075;53.988;27.678;2023-02-22T08:51:52;37.4;36.6;28
62981;PMS5003;49075;53.988;27.678;2023-02-22T08:56:56;48.8;44.8;34
62981;PMS5003;49075;53.988;27.678;2023-02-22T09:01:28;47.6;43.4;31.6
62981;PMS5003;49075;53.988;27.678;2023-02-22T09:06:42;39.6;38.2;28.8
62981;PMS5003;49075;53.988;27.678;2023-02-22T09:12:06;31.6;31.2;24.6
62981;PMS5003;49075;53.988;27.678;2023-02-22T09:16:29;37.8;36.2;26.8
62981;PMS5003;49075;53.988;27.678;2023-02-22T09:21:55;36.2;34.8;26.8
62981;PMS5003;49075;53.988;27.678;2023-02-22T09:26:37;38.8;37;28.2
62981;PMS5003;49075;53.988;27.678;2023-02-22T09:31:58;32.4;31.8;25.4
62981;PMS5003;49075;53.988;27.678;2023-02-22T09:37:06;32.4;31.6;26
62981;PMS5003;49075;53.988;27.678;2023-02-22T09:41:34;34.4;33;27.6
62981;PMS5003;49075;53.988;27.678;2023-02-22T09:46:58;34.2;33.6;27
62981;PMS5003;49075;53.988;27.678;2023-02-22T09:51:32;37.6;36.8;28.8
62981;PMS5003;49075;53.988;27.678;2023-02-22T09:56:59;40.8;40;30
62981;PMS5003;49075;53.988;27.678;2023-02-22T10:02:13;35;34;28.4
62981;PMS5003;49075;53.988;27.678;2023-02-22T10:06:32;31.8;31;24
62981;PMS5003;49075;53.988;27.678;2023-02-22T10:11:59;36.6;35.4;27.8
62981;PMS5003;49075;53.988;27.678;2023-02-22T10:16:42;40.6;39.2;28.8
62981;PMS5003;49075;53.988;27.678;2023-02-22T10:22:01;37;35.6;28
62981;PMS5003;49075;53.988;27.678;2023-02-22T10:27:07;33;32;26.2
62981;PMS5003;49075;53.988;27.678;2023-02-22T10:31:33;42;40.2;30.2
62981;PMS5003;49075;53.988;27.678;2023-02-22T10:36:40;44.8;41.2;30
62981;PMS5003;49075;53.988;27.678;2023-02-22T10:41:30;43.2;40.4;30.6
62981;PMS5003;49075;53.988;27.678;2023-02-22T10:46:29;43;40.8;29.4
62981;PMS5003;49075;53.988;27.678;2023-02-22T10:52:11;34.8;34;26.4
62981;PMS5003;49075;53.988;27.678;2023-02-22T10:56:32;45.5;41.8;30
62981;PMS5003;49075;53.988;27.678;2023-02-22T11:01:58;41;38;28.8
62981;PMS5003;49075;53.988;27.678;2023-02-22T11:06:29;44;40.2;30.8
62981;PMS5003;49075;53.988;27.678;2023-02-22T11:12:06;34.8;34.6;26.2
62981;PMS5003;49075;53.988;27.678;2023-02-22T11:17:12;37;35.4;26.4
62981;PMS5003;49075;53.988;27.678;2023-02-22T11:21:32;33.6;31.8;23.8
62981;PMS5003;49075;53.988;27.678;2023-02-22T11:26:59;36;34;25.4
62981;PMS5003;49075;53.988;27.678;2023-02-22T11:31:19;33.4;31;23.2
62981;PMS5003;49075;53.988;27.678;2023-02-22T11:37:18;41.3;36.8;26.3
62981;PMS5003;49075;53.988;27.678;2023-02-22T11:42:24;33;30.6;22.2
62981;PMS5003;49075;53.988;27.678;2023-02-22T11:46:40;37;34.2;25.2
62981;PMS5003;49075;53.988;27.678;2023-02-22T11:52:06;35;32.8;24
62981;PMS5003;49075;53.988;27.678;2023-02-22T11:56:20;39.4;34.8;24.4
62981;PMS5003;49075;53.988;27.678;2023-02-22T12:02:00;34.4;31.6;22.6
62981;PMS5003;49075;53.988;27.678;2023-02-22T12:07:12;28.6;27.4;21.8
62981;PMS5003;49075;53.988;27.678;2023-02-22T12:11:47;38;34;24.8
62981;PMS5003;49075;53.988;27.678;2023-02-22T12:16:35;42.8;37.6;27.4
62981;PMS5003;49075;53.988;27.678;2023-02-22T12:21:19;37;33.6;24.8
62981;PMS5003;49075;53.988;27.678;2023-02-22T12:26:58;38.2;35;25
62981;PMS5003;49075;53.988;27.678;2023-02-22T12:32:08;43.8;39.2;28.2
62981;PMS5003;49075;53.988;27.678;2023-02-22T12:36:51;38.8;35.3;25.5
62981;PMS5003;49075;53.988;27.678;2023-02-22T12:42:01;43;38.6;27.6
62981;PMS5003;49075;53.988;27.678;2023-02-22T12:46:28;43.7;38.7;27.3
62981;PMS5003;49075;53.988;27.678;2023-02-22T12:52:00;40.8;37.4;27
62981;PMS5003;49075;53.988;27.678;2023-02-22T12:57:10;40.2;37.4;27.2
62981;PMS5003;49075;53.988;27.678;2023-02-22T13:01:46;38.6;36.8;27.4
62981;PMS5003;49075;53.988;27.678;2023-02-22T13:06:59;45;40.8;30
62981;PMS5003;49075;53.988;27.678;2023-02-22T13:11:20;45.6;41.8;32
62981;PMS5003;49075;53.988;27.678;2023-02-22T13:16:59;34.8;33.2;25.2
62981;PMS5003;49075;53.988;27.678;2023-02-22T13:22:07;38;36.6;28
62981;PMS5003;49075;53.988;27.678;2023-02-22T13:26:47;42.2;40.2;28.8
62981;PMS5003;49075;53.988;27.678;2023-02-22T13:32:06;40.3;38.3;28
62981;PMS5003;49075;53.988;27.678;2023-02-22T13:36:41;42.8;39.5;28.5
62981;PMS5003;49075;53.988;27.678;2023-02-22T13:47:10;33;32.8;25
62981;PMS5003;49075;53.988;27.678;2023-02-22T13:51:47;45;42;29.6
62981;PMS5003;49075;53.988;27.678;2023-02-22T13:56:56;38.4;36.6;27.6
62981;PMS5003;49075;53.988;27.678;2023-02-22T14:01:47;38.8;36.8;28
62981;PMS5003;49075;53.988;27.678;2023-02-22T14:06:40;41.2;37.8;28
62981;PMS5003;49075;53.988;27.678;2023-02-22T14:12:04;43;39.8;28.2
62981;PMS5003;49075;53.988;27.678;2023-02-22T14:17:14;42.8;39.4;28.2
62981;PMS5003;49075;53.988;27.678;2023-02-22T14:21:55;51.6;45.2;32.6
62981;PMS5003;49075;53.988;27.678;2023-02-22T14:26:29;44.8;41.4;30.8
62981;PMS5003;49075;53.988;27.678;2023-02-22T14:31:58;44.7;41.3;30.7
62981;PMS5003;49075;53.988;27.678;2023-02-22T14:37:07;36.4;35;26.6
62981;PMS5003;49075;53.988;27.678;2023-02-22T14:41:32;39.5;38.3;29
62981;PMS5003;49075;53.988;27.678;2023-02-22T14:46:57;42.4;41;30.2
62981;PMS5003;49075;53.988;27.678;2023-02-22T14:51:19;43.3;40;29.5
62981;PMS5003;49075;53.988;27.678;2023-02-22T14:56:58;44;41.4;29.6
62981;PMS5003;49075;53.988;27.678;2023-02-22T15:02:02;48;43.5;29
62981;PMS5003;49075;53.988;27.678;2023-02-22T15:06:44;48.8;45.2;32.2
62981;PMS5003;49075;53.988;27.678;2023-02-22T15:12:20;43;39.8;28.8
62981;PMS5003;49075;53.988;27.678;2023-02-22T15:16:30;52.5;46.5;32
62981;PMS5003;49075;53.988;27.678;2023-02-22T15:21:58;47.8;43.5;30.3
62981;PMS5003;49075;53.988;27.678;2023-02-22T15:27:11;45.4;42.6;30.2
62981;PMS5003;49075;53.988;27.678;2023-02-22T15:31:51;52;47;33.2
62981;PMS5003;49075;53.988;27.678;2023-02-22T15:37:01;45.6;43;32
62981;PMS5003;49075;53.988;27.678;2023-02-22T15:41:38;48.4;45;33
62981;PMS5003;49075;53.988;27.678;2023-02-22T15:46:56;46;43.4;31
62981;PMS5003;49075;53.988;27.678;2023-02-22T15:52:13;46;43.5;31.8
62981;PMS5003;49075;53.988;27.678;2023-02-22T15:56:32;46;42;30.6
62981;PMS5003;49075;53.988;27.678;2023-02-22T16:01:43;53;48;33.3
62981;PMS5003;49075;53.988;27.678;2023-02-22T16:06:29;52.6;46.6;34.4
62981;PMS5003;49075;53.988;27.678;2023-02-22T16:12:22;41.2;39.6;28.6
62981;PMS5003;49075;53.988;27.678;2023-02-22T16:17:11;42.4;41.2;30.4
62981;PMS5003;49075;53.988;27.678;2023-02-22T16:21:52;41.2;39.4;30.4
62981;PMS5003;49075;53.988;27.678;2023-02-22T16:27:15;46.4;44;32.8
62981;PMS5003;49075;53.988;27.678;2023-02-22T16:31:31;43.8;41.4;32
62981;PMS5003;49075;53.988;27.678;2023-02-22T16:36:22;47.2;45.6;33.6
62981;PMS5003;49075;53.988;27.678;2023-02-22T16:42:14;40.5;39.8;29.5
62981;PMS5003;49075;53.988;27.678;2023-02-22T16:46:55;64.5;54;40
62981;PMS5003;49075;53.988;27.678;2023-02-22T16:52:10;56.3;50.7;36.7
62981;PMS5003;49075;53.988;27.678;2023-02-22T16:56:17;50;47;34.4
62981;PMS5003;49075;53.988;27.678;2023-02-22T17:01:56;49.8;45.2;31.8
62981;PMS5003;49075;53.988;27.678;2023-02-22T17:07:04;45.2;43;31.2
62981;PMS5003;49075;53.988;27.678;2023-02-22T17:11:28;51.6;47.6;34.6
62981;PMS5003;49075;53.988;27.678;2023-02-22T17:17:08;48.2;43.4;31.6
62981;PMS5003;49075;53.988;27.678;2023-02-22T17:21:54;53.2;48.6;35.2
62981;PMS5003;49075;53.988;27.678;2023-02-22T17:27:10;54.4;49.2;35
62981;PMS5003;49075;53.988;27.678;2023-02-22T17:32:06;52.8;48.3;34.8
62981;PMS5003;49075;53.988;27.678;2023-02-22T17:36:45;49.2;46.4;33.4
62981;PMS5003;49075;53.988;27.678;2023-02-22T17:42:04;55.2;49.6;36
62981;PMS5003;49075;53.988;27.678;2023-02-22T17:46:51;49.8;46.5;34.3
62981;PMS5003;49075;53.988;27.678;2023-02-22T17:51:58;42.4;41.6;30.2
62981;PMS5003;49075;53.988;27.678;2023-02-22T17:57:08;44.8;42.4;30.4
62981;PMS5003;49075;53.988;27.678;2023-02-22T18:01:19;43.6;41.6;31.2
62981;PMS5003;49075;53.988;27.678;2023-02-22T18:07:06;48;45;32
62981;PMS5003;49075;53.988;27.678;2023-02-22T18:11:38;53.4;49;34.4
62981;PMS5003;49075;53.988;27.678;2023-02-22T18:16:58;48.2;45.6;33.2
62981;PMS5003;49075;53.988;27.678;2023-02-22T18:22:08;51.6;46.6;33.8
62981;PMS5003;49075;53.988;27.678;2023-02-22T18:26:46;46.8;44.4;32.2
62981;PMS5003;49075;53.988;27.678;2023-02-22T18:32:04;48.2;45.4;33.2
62981;PMS5003;49075;53.988;27.678;2023-02-22T18:36:32;42.2;41.6;31
62981;PMS5003;49075;53.988;27.678;2023-02-22T18:41:40;45.4;42.8;32.4
62981;PMS5003;49075;53.988;27.678;2023-02-22T18:47:06;46;44;34
62981;PMS5003;49075;53.988;27.678;2023-02-22T18:51:44;45.4;44;34
62981;PMS5003;49075;53.988;27.678;2023-02-22T18:57:08;50.4;45.6;34.4
62981;PMS5003;49075;53.988;27.678;2023-02-22T19:01:17;48.8;44.8;32.8
62981;PMS5003;49075;53.988;27.678;2023-02-22T19:06:58;43.2;43;31.2
62981;PMS5003;49075;53.988;27.678;2023-02-22T19:12:08;44;42.6;30.6
62981;PMS5003;49075;53.988;27.678;2023-02-22T19:16:20;45.4;43.6;31.6
62981;PMS5003;49075;53.988;27.678;2023-02-22T19:22:08;45;44;31.4
62981;PMS5003;49075;53.988;27.678;2023-02-22T19:26:17;50.4;46.4;35
62981;PMS5003;49075;53.988;27.678;2023-02-22T19:31:56;48;46.3;32.3
62981;PMS5003;49075;53.988;27.678;2023-02-22T19:37:06;44.8;43.2;31.6
62981;PMS5003;49075;53.988;27.678;2023-02-22T19:41:42;45.6;42.6;32.2
62981;PMS5003;49075;53.988;27.678;2023-02-22T19:47:06;45.6;43.2;30.6
62981;PMS5003;49075;53.988;27.678;2023-02-22T19:51:52;40.6;39.6;30.4
62981;PMS5003;49075;53.988;27.678;2023-02-22T19:56:58;43.4;41.4;30.4
62981;PMS5003;49075;53.988;27.678;2023-02-22T20:02:08;45;43.2;33
62981;PMS5003;49075;53.988;27.678;2023-02-22T20:06:47;48.6;45;32.8
62981;PMS5003;49075;53.988;27.678;2023-02-22T20:12:08;50.8;47.4;34
62981;PMS5003;49075;53.988;27.678;2023-02-22T20:16:18;45.5;43.8;32
62981;PMS5003;49075;53.988;27.678;2023-02-22T20:22:00;42;39.8;30
62981;PMS5003;49075;53.988;27.678;2023-02-22T20:26:19;48;45.2;32.4
62981;PMS5003;49075;53.988;27.678;2023-02-22T20:31:46;43.2;40.8;30.6
62981;PMS5003;49075;53.988;27.678;2023-02-22T20:37:08;46.6;44.2;32.2
62981;PMS5003;49075;53.988;27.678;2023-02-22T20:41:20;47.8;44.4;32.6
62981;PMS5003;49075;53.988;27.678;2023-02-22T20:47:00;41.8;39.6;27.8
62981;PMS5003;49075;53.988;27.678;2023-02-22T20:51:32;43.8;41.2;31.6
62981;PMS5003;49075;53.988;27.678;2023-02-22T20:56:46;52;48.8;36.3
62981;PMS5003;49075;53.988;27.678;2023-02-22T21:01:20;49;45.6;32.6
62981;PMS5003;49075;53.988;27.678;2023-02-22T21:06:24;54;49.5;34.8
62981;PMS5003;49075;53.988;27.678;2023-02-22T21:12:00;46.4;44;33.4
62981;PMS5003;49075;53.988;27.678;2023-02-22T21:16:50;46.8;44.2;31.4
62981;PMS5003;49075;53.988;27.678;2023-02-22T21:21:42;40.6;39.2;29.6
62981;PMS5003;49075;53.988;27.678;2023-02-22T21:26:52;44.3;42.3;31
62981;PMS5003;49075;53.988;27.678;2023-02-22T21:31:40;48.8;45.4;33.4
62981;PMS5003;49075;53.988;27.678;2023-02-22T21:37:00;57;51.4;38.4
62981;PMS5003;49075;53.988;27.678;2023-02-22T21:41:19;49.4;45.8;32.4
62981;PMS5003;49075;53.988;27.678;2023-02-22T21:46:54;52;46.8;33.6
62981;PMS5003;49075;53.988;27.678;2023-02-22T21:52:10;52;45.3;31
62981;PMS5003;49075;53.988;27.678;2023-02-22T21:56:32;44.6;43;33
62981;PMS5003;49075;53.988;27.678;2023-02-22T22:02:00;43.2;41.6;31.2
62981;PMS5003;49075;53.988;27.678;2023-02-22T22:06:32;54.2;49.8;37.4
62981;PMS5003;49075;53.988;27.678;2023-02-22T22:11:18;42.8;42.2;30.8
62981;PMS5003;49075;53.988;27.678;2023-02-22T22:17:09;41.3;40.3;31
62981;PMS5003;49075;53.988;27.678;2023-02-22T22:21:40;41.6;40;29.8
62981;PMS5003;49075;53.988;27.678;2023-02-22T22:27:00;39.2;37.8;28.6
62981;PMS5003;49075;53.988;27.678;2023-02-22T22:31:36;45;43.6;33
62981;PMS5003;49075;53.988;27.678;2023-02-22T22:36:52;45.3;42.3;31.5
62981;PMS5003;49075;53.988;27.678;2023-02-22T22:42:10;43.4;40.4;30
62981;PMS5003;49075;53.988;27.678;2023-02-22T22:46:26;38;35.8;26.6
62981;PMS5003;49075;53.988;27.678;2023-02-22T22:51:58;43;42.2;31
62981;PMS5003;49075;53.988;27.678;2023-02-22T22:56:26;43.6;41.2;30.8
62981;PMS5003;49075;53.988;27.678;2023-02-22T23:01:33;47.6;44.6;32.6
62981;PMS5003;49075;53.988;27.678;2023-02-22T23:07:08;47;44.2;32.4
62981;PMS5003;49075;53.988;27.678;2023-02-22T23:11:18;40.8;39.6;28.6
62981;PMS5003;49075;53.988;27.678;2023-02-22T23:17:00;47.2;43.4;32.8
62981;PMS5003;49075;53.988;27.678;2023-02-22T23:21:47;51.4;47.6;35.2
62981;PMS5003;49075;53.988;27.678;2023-02-22T23:26:18;36.8;35.2;27.4
62981;PMS5003;49075;53.988;27.678;2023-02-22T23:32:04;37.6;36.8;29.2
62981;PMS5003;49075;53.988;27.678;2023-02-22T23:36:18;44.3;42.5;31.5
62981;PMS5003;49075;53.988;27.678;2023-02-22T23:41:57;46.4;43.2;33.8
62981;PMS5003;49075;53.988;27.678;2023-02-22T23:46:18;50.2;46;34
62981;PMS5003;49075;53.988;27.678;2023-02-22T23:51:40;47.8;44.2;32
62981;PMS5003;49075;53.988;27.678;2023-02-22T23:56:58;46.4;43.8;33.2
